首页
METAR-TAF:

METAR-TAF

机场 :

阿雅克肖, 法国

纬度: 41-55N, 经度: 008-48E, 海拔: 6米

当前天气观测

该预报发布于18分钟前的11:00 UTC
风速10节,风向西南
温度 24°C
湿度 65%
气压 1017 hPa
能见度10公里或以上
1500米以下无云,无积雨云

METAR: LFKJ 161100Z AUTO 22010KT CAVOK 24/17 Q1017 NOSIG

时间: 13:18 (11:18 UTC)

预报

该预报发布于3小时和18分钟前的08:00 UTC
预报有效从16日的 09点(UTC)到 17日的 09点(UTC)
风速10节,风向西转西南
能见度10公里或以上
1500米以下无云,无积雨云
成为
从 16日的 18点(UTC)到 16日的 21点(UTC)
风速4节,风向东北
几率 40% :
短暂存在
从 17日的 01点(UTC)到 17日的 06点(UTC)
多云层高于800英尺
成为
从 17日的 07点(UTC)到 17日的 09点(UTC)
风速10节,风向西南

TAF: LFKJ 160800Z 1609/1709 24010KT CAVOK BECMG 1618/1621 05004KT PROB40 TEMPO 1701/1706 BKN008 BECMG 1707/1709 23010KT

超过4000个机场的气象观测和天气预报(METAR&TAF报告)。

可查询的气象台以黄色和红色小点在地图上表示。

将鼠标移到小点上方,可查看气象台名称。

然后点击查看天气观测和预报。

如需切换地图:点击带黑十字的绿色按钮放大地图;点击带横线的绿色按钮缩小地图;或者点击绿色箭头查看邻近地区的地图。


METAR-TAF: